WAT7014 LFOB-LFLL
Flight info
| Callsign | WAT7014 |
|---|---|
| Flight time | 0h 53m |
| Altitude | 25000 |
| Route | LATRA DCT POLLY DCT OKEPI DCT MOU/N0397F190 A3 FEDZI |
| Aircraft | E55P/M-SBDFGHJ2RWY/LB2 |
Departure
| Time | 2026-05-08 13:18 |
|---|---|
| Airport | Beauvais-Tillé airport (LFOB) |
Arrival
| Time | 2026-05-08 14:12 |
|---|---|
| Airport | Lyon Saint-Exupéry Airport (LFLL) |
| Time | Latitude | Longitude | Altitude | Speed | Heading |
|---|---|---|---|---|---|
| 2026-05-08 12:44 | 49.45375 | 2.10816 | 339 ft | 0 kts | 213° |
| 2026-05-08 13:15 | 49.45374 | 2.10815 | 339 ft | 0 kts | 231° |
| 2026-05-08 13:16 | 49.45379 | 2.10799 | 340 ft | 2 kts | 317° |
| 2026-05-08 13:16 | 49.45395 | 2.10789 | 340 ft | 2 kts | 0° |
| 2026-05-08 13:16 | 49.45416 | 2.10803 | 339 ft | 3 kts | 33° |
| 2026-05-08 13:16 | 49.45443 | 2.10831 | 339 ft | 5 kts | 34° |
| 2026-05-08 13:17 | 49.45479 | 2.10869 | 338 ft | 7 kts | 33° |
| 2026-05-08 13:17 | 49.45526 | 2.10917 | 338 ft | 8 kts | 34° |
| 2026-05-08 13:17 | 49.45569 | 2.10960 | 339 ft | 5 kts | 41° |
| 2026-05-08 13:17 | 49.45565 | 2.11000 | 338 ft | 0 kts | 127° |
| 2026-05-08 13:18 | 49.45515 | 2.11113 | 337 ft | 46 kts | 123° |
| 2026-05-08 13:18 | 49.45182 | 2.11906 | 362 ft | 118 kts | 123° |
| 2026-05-08 13:18 | 49.44659 | 2.13061 | 803 ft | 143 kts | 121° |
| 2026-05-08 13:18 | 49.44189 | 2.14509 | 1407 ft | 160 kts | 111° |
| 2026-05-08 13:19 | 49.43902 | 2.16345 | 1794 ft | 195 kts | 94° |
| 2026-05-08 13:19 | 49.43869 | 2.18535 | 2348 ft | 208 kts | 88° |
| 2026-05-08 13:19 | 49.43939 | 2.20738 | 2659 ft | 197 kts | 85° |
| 2026-05-08 13:19 | 49.44052 | 2.22993 | 3271 ft | 218 kts | 84° |
| 2026-05-08 13:20 | 49.44181 | 2.25325 | 4288 ft | 221 kts | 84° |
| 2026-05-08 13:20 | 49.44317 | 2.27659 | 5298 ft | 224 kts | 84° |
| 2026-05-08 13:20 | 49.44456 | 2.30083 | 6346 ft | 226 kts | 84° |
| 2026-05-08 13:20 | 49.44596 | 2.32484 | 7277 ft | 231 kts | 84° |
| 2026-05-08 13:21 | 49.44709 | 2.34963 | 8170 ft | 238 kts | 93° |
| 2026-05-08 13:21 | 49.44170 | 2.37359 | 9069 ft | 243 kts | 123° |
| 2026-05-08 13:21 | 49.43057 | 2.39357 | 10001 ft | 247 kts | 135° |
| 2026-05-08 13:21 | 49.41764 | 2.41204 | 10598 ft | 265 kts | 139° |
| 2026-05-08 13:22 | 49.40303 | 2.43131 | 11007 ft | 289 kts | 140° |
| 2026-05-08 13:22 | 49.38681 | 2.45235 | 11416 ft | 312 kts | 140° |
| 2026-05-08 13:22 | 49.36982 | 2.47431 | 11979 ft | 325 kts | 140° |
| 2026-05-08 13:22 | 49.35240 | 2.49681 | 12953 ft | 325 kts | 140° |
| 2026-05-08 13:23 | 49.33513 | 2.51905 | 13886 ft | 325 kts | 140° |
| 2026-05-08 13:23 | 49.31770 | 2.54152 | 14687 ft | 330 kts | 141° |
| 2026-05-08 13:23 | 49.29997 | 2.56425 | 15431 ft | 335 kts | 141° |
| 2026-05-08 13:23 | 49.28202 | 2.58733 | 16213 ft | 340 kts | 141° |
| 2026-05-08 13:24 | 49.26371 | 2.61085 | 16991 ft | 344 kts | 141° |
| 2026-05-08 13:24 | 49.24506 | 2.63474 | 17741 ft | 348 kts | 141° |
| 2026-05-08 13:24 | 49.22639 | 2.65863 | 18466 ft | 352 kts | 142° |
| 2026-05-08 13:24 | 49.20718 | 2.68321 | 18960 ft | 363 kts | 142° |
| 2026-05-08 13:25 | 49.18725 | 2.70867 | 19023 ft | 375 kts | 142° |
| 2026-05-08 13:25 | 49.16698 | 2.73454 | 19036 ft | 378 kts | 141° |
| 2026-05-08 13:25 | 49.14640 | 2.76079 | 19037 ft | 379 kts | 142° |
| 2026-05-08 13:25 | 49.12590 | 2.78688 | 19033 ft | 380 kts | 142° |
| 2026-05-08 13:26 | 49.10547 | 2.81291 | 19032 ft | 381 kts | 142° |
| 2026-05-08 13:26 | 49.08483 | 2.83909 | 19031 ft | 382 kts | 142° |
| 2026-05-08 13:26 | 49.06416 | 2.86534 | 19029 ft | 382 kts | 142° |
| 2026-05-08 13:26 | 49.04338 | 2.89170 | 19024 ft | 384 kts | 142° |
| 2026-05-08 13:27 | 49.02222 | 2.91851 | 19366 ft | 394 kts | 142° |
| 2026-05-08 13:27 | 49.00099 | 2.94540 | 20186 ft | 392 kts | 142° |
| 2026-05-08 13:27 | 48.97947 | 2.97257 | 20929 ft | 393 kts | 142° |
| 2026-05-08 13:27 | 48.95810 | 2.99953 | 21520 ft | 397 kts | 142° |
| 2026-05-08 13:28 | 48.93623 | 3.02711 | 22044 ft | 402 kts | 142° |
| 2026-05-08 13:28 | 48.91214 | 3.04907 | 22554 ft | 401 kts | 163° |
| 2026-05-08 13:28 | 48.88417 | 3.05381 | 23168 ft | 397 kts | 187° |
| 2026-05-08 13:28 | 48.85768 | 3.04078 | 23736 ft | 394 kts | 211° |
| 2026-05-08 13:29 | 48.83609 | 3.01485 | 24277 ft | 394 kts | 223° |
| 2026-05-08 13:29 | 48.81857 | 2.98303 | 24676 ft | 396 kts | 241° |
| 2026-05-08 13:29 | 48.80655 | 2.94494 | 24966 ft | 402 kts | 247° |
| 2026-05-08 13:29 | 48.79582 | 2.90455 | 25004 ft | 409 kts | 250° |
| 2026-05-08 13:30 | 48.78583 | 2.86394 | 25011 ft | 408 kts | 251° |
| 2026-05-08 13:30 | 48.77610 | 2.82322 | 25009 ft | 408 kts | 251° |
| 2026-05-08 13:30 | 48.76645 | 2.78252 | 25009 ft | 408 kts | 251° |
| 2026-05-08 13:30 | 48.75680 | 2.74193 | 24999 ft | 408 kts | 252° |
| 2026-05-08 13:31 | 48.74718 | 2.70138 | 25016 ft | 407 kts | 252° |
| 2026-05-08 13:31 | 48.73768 | 2.66145 | 25013 ft | 407 kts | 251° |
| 2026-05-08 13:31 | 48.72788 | 2.62089 | 24998 ft | 409 kts | 250° |
| 2026-05-08 13:31 | 48.71228 | 2.58499 | 25006 ft | 415 kts | 228° |
| 2026-05-08 13:32 | 48.68835 | 2.56006 | 25026 ft | 421 kts | 211° |
| 2026-05-08 13:32 | 48.66271 | 2.53795 | 25010 ft | 421 kts | 214° |
| 2026-05-08 13:32 | 48.63683 | 2.51531 | 25013 ft | 422 kts | 214° |
| 2026-05-08 13:32 | 48.61112 | 2.49242 | 25020 ft | 422 kts | 214° |
| 2026-05-08 13:33 | 48.58572 | 2.46983 | 25014 ft | 422 kts | 214° |
| 2026-05-08 13:33 | 48.56034 | 2.44733 | 25019 ft | 420 kts | 214° |
| 2026-05-08 13:33 | 48.53433 | 2.42420 | 25000 ft | 422 kts | 214° |
| 2026-05-08 13:33 | 48.50880 | 2.40262 | 25005 ft | 427 kts | 208° |
| 2026-05-08 13:34 | 48.47854 | 2.39259 | 24993 ft | 439 kts | 186° |
| 2026-05-08 13:34 | 48.44699 | 2.39599 | 25008 ft | 441 kts | 181° |
| 2026-05-08 13:34 | 48.41585 | 2.39861 | 24999 ft | 441 kts | 180° |
| 2026-05-08 13:34 | 48.38452 | 2.40120 | 24999 ft | 440 kts | 181° |
| 2026-05-08 13:35 | 48.35374 | 2.40365 | 25002 ft | 441 kts | 181° |
| 2026-05-08 13:35 | 48.32228 | 2.40612 | 24993 ft | 441 kts | 181° |
| 2026-05-08 13:35 | 48.29077 | 2.40895 | 24992 ft | 444 kts | 178° |
| 2026-05-08 13:35 | 48.26014 | 2.42238 | 25013 ft | 450 kts | 162° |
| 2026-05-08 13:36 | 48.23019 | 2.43843 | 24980 ft | 450 kts | 164° |
| 2026-05-08 13:36 | 48.19994 | 2.45482 | 24987 ft | 453 kts | 164° |
| 2026-05-08 13:36 | 48.16896 | 2.47128 | 24994 ft | 454 kts | 164° |
| 2026-05-08 13:36 | 48.13830 | 2.48753 | 25001 ft | 453 kts | 164° |
| 2026-05-08 13:37 | 48.10796 | 2.50363 | 25001 ft | 452 kts | 165° |
| 2026-05-08 13:37 | 48.07796 | 2.51975 | 24989 ft | 452 kts | 161° |
| 2026-05-08 13:37 | 48.05062 | 2.54575 | 24996 ft | 461 kts | 140° |
| 2026-05-08 13:37 | 48.03061 | 2.58452 | 25000 ft | 466 kts | 119° |
| 2026-05-08 13:38 | 48.02000 | 2.63143 | 25004 ft | 469 kts | 99° |
| 2026-05-08 13:38 | 48.02005 | 2.68024 | 24997 ft | 465 kts | 78° |
| 2026-05-08 13:38 | 48.03049 | 2.72596 | 25005 ft | 456 kts | 59° |
| 2026-05-08 13:38 | 48.04251 | 2.77118 | 24976 ft | 462 kts | 77° |
| 2026-05-08 13:39 | 48.04241 | 2.82059 | 25013 ft | 467 kts | 100° |
| 2026-05-08 13:39 | 48.03090 | 2.86584 | 24989 ft | 465 kts | 122° |
| 2026-05-08 13:39 | 48.00887 | 2.90308 | 24996 ft | 460 kts | 144° |
| 2026-05-08 13:39 | 47.98331 | 2.93187 | 24983 ft | 460 kts | 151° |
| 2026-05-08 13:40 | 47.95379 | 2.95221 | 24997 ft | 456 kts | 161° |
| 2026-05-08 13:40 | 47.92462 | 2.96893 | 24997 ft | 452 kts | 164° |
| 2026-05-08 13:40 | 47.89455 | 2.98481 | 24990 ft | 450 kts | 164° |
| 2026-05-08 13:40 | 47.86456 | 3.00029 | 24991 ft | 450 kts | 165° |
| 2026-05-08 13:41 | 47.83426 | 3.01594 | 24990 ft | 451 kts | 165° |
| 2026-05-08 13:41 | 47.80406 | 3.03141 | 24991 ft | 452 kts | 164° |
| 2026-05-08 13:41 | 47.77394 | 3.04691 | 25000 ft | 452 kts | 165° |
| 2026-05-08 13:41 | 47.74330 | 3.06252 | 24983 ft | 452 kts | 165° |
| 2026-05-08 13:42 | 47.71222 | 3.07844 | 24979 ft | 451 kts | 164° |
| 2026-05-08 13:42 | 47.68219 | 3.09382 | 24990 ft | 452 kts | 165° |
| 2026-05-08 13:42 | 47.65169 | 3.10934 | 24983 ft | 452 kts | 164° |
| 2026-05-08 13:42 | 47.62094 | 3.12504 | 24977 ft | 450 kts | 164° |
| 2026-05-08 13:43 | 47.59084 | 3.14034 | 24985 ft | 449 kts | 165° |
| 2026-05-08 13:43 | 47.56067 | 3.15570 | 24979 ft | 450 kts | 165° |
| 2026-05-08 13:43 | 47.53010 | 3.17121 | 24985 ft | 450 kts | 165° |
| 2026-05-08 13:43 | 47.49997 | 3.18647 | 24979 ft | 450 kts | 164° |
| 2026-05-08 13:44 | 47.46989 | 3.20170 | 24973 ft | 450 kts | 164° |
| 2026-05-08 13:44 | 47.43889 | 3.21739 | 24986 ft | 451 kts | 164° |
| 2026-05-08 13:44 | 47.40867 | 3.23269 | 24979 ft | 452 kts | 164° |
| 2026-05-08 13:44 | 47.37772 | 3.24826 | 24975 ft | 451 kts | 164° |
| 2026-05-08 13:45 | 47.34742 | 3.26354 | 24970 ft | 451 kts | 164° |
| 2026-05-08 13:45 | 47.31714 | 3.27877 | 24973 ft | 451 kts | 164° |
| 2026-05-08 13:45 | 47.28755 | 3.29368 | 24975 ft | 450 kts | 164° |
| 2026-05-08 13:45 | 47.25736 | 3.30883 | 24967 ft | 450 kts | 164° |
| 2026-05-08 13:46 | 47.22640 | 3.32436 | 24960 ft | 450 kts | 164° |
| 2026-05-08 13:46 | 47.19604 | 3.33959 | 24970 ft | 450 kts | 164° |
| 2026-05-08 13:46 | 47.16576 | 3.35472 | 24960 ft | 450 kts | 164° |
| 2026-05-08 13:46 | 47.13542 | 3.37060 | 24957 ft | 452 kts | 160° |
| 2026-05-08 13:47 | 47.10545 | 3.38933 | 24967 ft | 452 kts | 160° |
| 2026-05-08 13:47 | 47.07600 | 3.40738 | 24966 ft | 453 kts | 160° |
| 2026-05-08 13:47 | 47.04628 | 3.42553 | 24962 ft | 452 kts | 160° |
| 2026-05-08 13:47 | 47.01664 | 3.44363 | 24947 ft | 451 kts | 160° |
| 2026-05-08 13:48 | 46.98696 | 3.46178 | 24950 ft | 452 kts | 160° |
| 2026-05-08 13:48 | 46.95789 | 3.47947 | 24951 ft | 453 kts | 159° |
| 2026-05-08 13:48 | 46.92831 | 3.49752 | 24953 ft | 453 kts | 160° |
| 2026-05-08 13:48 | 46.89861 | 3.51553 | 24950 ft | 453 kts | 159° |
| 2026-05-08 13:49 | 46.86927 | 3.53333 | 24946 ft | 452 kts | 159° |
| 2026-05-08 13:49 | 46.83981 | 3.55120 | 24944 ft | 451 kts | 159° |
| 2026-05-08 13:49 | 46.81060 | 3.56891 | 24948 ft | 451 kts | 159° |
| 2026-05-08 13:49 | 46.78084 | 3.58691 | 24944 ft | 452 kts | 159° |
| 2026-05-08 13:50 | 46.75180 | 3.60447 | 24945 ft | 452 kts | 160° |
| 2026-05-08 13:50 | 46.72231 | 3.62224 | 24947 ft | 452 kts | 159° |
| 2026-05-08 13:50 | 46.69295 | 3.63938 | 24960 ft | 452 kts | 162° |
| 2026-05-08 13:50 | 46.66277 | 3.65580 | 24947 ft | 452 kts | 162° |
| 2026-05-08 13:51 | 46.63333 | 3.67188 | 24948 ft | 452 kts | 162° |
| 2026-05-08 13:51 | 46.60331 | 3.68830 | 24947 ft | 451 kts | 162° |
| 2026-05-08 13:51 | 46.57377 | 3.70446 | 24536 ft | 451 kts | 162° |
| 2026-05-08 13:51 | 46.54454 | 3.72040 | 23830 ft | 443 kts | 161° |
| 2026-05-08 13:52 | 46.51548 | 3.73626 | 23148 ft | 434 kts | 162° |
| 2026-05-08 13:52 | 46.48748 | 3.75153 | 22496 ft | 427 kts | 161° |
| 2026-05-08 13:52 | 46.45969 | 3.76667 | 21843 ft | 419 kts | 162° |
| 2026-05-08 13:52 | 46.43237 | 3.78247 | 21183 ft | 412 kts | 160° |
| 2026-05-08 13:53 | 46.40588 | 3.79780 | 20326 ft | 409 kts | 160° |
| 2026-05-08 13:53 | 46.37944 | 3.81330 | 19449 ft | 406 kts | 159° |
| 2026-05-08 13:53 | 46.35661 | 3.83651 | 19022 ft | 399 kts | 134° |
| 2026-05-08 13:53 | 46.33967 | 3.86838 | 18828 ft | 396 kts | 130° |
| 2026-05-08 13:54 | 46.32239 | 3.90057 | 18327 ft | 400 kts | 129° |
| 2026-05-08 13:54 | 46.30525 | 3.93291 | 17849 ft | 402 kts | 130° |
| 2026-05-08 13:54 | 46.28808 | 3.96525 | 17356 ft | 402 kts | 130° |
| 2026-05-08 13:54 | 46.27111 | 3.99720 | 16859 ft | 401 kts | 129° |
| 2026-05-08 13:55 | 46.25412 | 4.02908 | 16365 ft | 393 kts | 129° |
| 2026-05-08 13:55 | 46.23754 | 4.06028 | 15877 ft | 386 kts | 129° |
| 2026-05-08 13:55 | 46.20506 | 4.12115 | 14907 ft | 374 kts | 129° |
| 2026-05-08 13:56 | 46.18928 | 4.15073 | 14430 ft | 369 kts | 129° |
| 2026-05-08 13:56 | 46.17355 | 4.18014 | 13946 ft | 365 kts | 129° |
| 2026-05-08 13:56 | 46.15810 | 4.20896 | 13467 ft | 360 kts | 129° |
| 2026-05-08 13:56 | 46.14277 | 4.23759 | 12989 ft | 358 kts | 129° |
| 2026-05-08 13:57 | 46.12726 | 4.26653 | 12518 ft | 358 kts | 129° |
| 2026-05-08 13:57 | 46.11208 | 4.29480 | 12052 ft | 357 kts | 129° |
| 2026-05-08 13:57 | 46.09669 | 4.32342 | 11577 ft | 356 kts | 129° |
| 2026-05-08 13:57 | 46.08146 | 4.35176 | 11106 ft | 354 kts | 129° |
| 2026-05-08 13:58 | 46.06636 | 4.37981 | 10643 ft | 345 kts | 129° |
| 2026-05-08 13:58 | 46.05220 | 4.40606 | 10599 ft | 311 kts | 129° |
| 2026-05-08 13:58 | 46.03950 | 4.42967 | 10511 ft | 283 kts | 129° |
| 2026-05-08 13:58 | 46.02752 | 4.45188 | 10240 ft | 267 kts | 129° |
| 2026-05-08 13:59 | 46.01642 | 4.47241 | 9977 ft | 253 kts | 129° |
| 2026-05-08 13:59 | 46.00580 | 4.49202 | 9713 ft | 244 kts | 130° |
| 2026-05-08 13:59 | 45.99556 | 4.51258 | 9468 ft | 258 kts | 123° |
| 2026-05-08 13:59 | 45.98606 | 4.53517 | 9230 ft | 267 kts | 123° |
| 2026-05-08 14:00 | 45.97605 | 4.55853 | 8975 ft | 271 kts | 123° |
| 2026-05-08 14:00 | 45.96607 | 4.58178 | 8720 ft | 271 kts | 123° |
| 2026-05-08 14:00 | 45.95607 | 4.60498 | 8462 ft | 269 kts | 124° |
| 2026-05-08 14:00 | 45.94537 | 4.62724 | 8204 ft | 267 kts | 126° |
| 2026-05-08 14:01 | 45.93479 | 4.64927 | 7949 ft | 265 kts | 126° |
| 2026-05-08 14:01 | 45.92417 | 4.67139 | 7687 ft | 263 kts | 127° |
| 2026-05-08 14:01 | 45.91370 | 4.69314 | 7431 ft | 262 kts | 127° |
| 2026-05-08 14:01 | 45.90334 | 4.71464 | 7176 ft | 261 kts | 127° |
| 2026-05-08 14:02 | 45.89296 | 4.73623 | 6989 ft | 256 kts | 126° |
| 2026-05-08 14:02 | 45.88350 | 4.75785 | 6959 ft | 246 kts | 129° |
| 2026-05-08 14:02 | 45.87072 | 4.77315 | 6972 ft | 233 kts | 148° |
| 2026-05-08 14:02 | 45.85751 | 4.78616 | 6961 ft | 227 kts | 147° |
| 2026-05-08 14:03 | 45.84359 | 4.79635 | 6864 ft | 221 kts | 170° |
| 2026-05-08 14:03 | 45.82821 | 4.79901 | 6677 ft | 220 kts | 174° |
| 2026-05-08 14:03 | 45.81297 | 4.80145 | 6475 ft | 219 kts | 174° |
| 2026-05-08 14:03 | 45.79779 | 4.80384 | 6273 ft | 219 kts | 174° |
| 2026-05-08 14:04 | 45.78254 | 4.80623 | 6074 ft | 219 kts | 174° |
| 2026-05-08 14:04 | 45.76709 | 4.80865 | 5873 ft | 218 kts | 174° |
| 2026-05-08 14:04 | 45.75189 | 4.81102 | 5672 ft | 218 kts | 174° |
| 2026-05-08 14:04 | 45.73683 | 4.81332 | 5476 ft | 217 kts | 174° |
| 2026-05-08 14:05 | 45.72225 | 4.81912 | 5272 ft | 217 kts | 150° |
| 2026-05-08 14:05 | 45.70939 | 4.83021 | 5081 ft | 210 kts | 150° |
| 2026-05-08 14:05 | 45.69694 | 4.84082 | 4870 ft | 203 kts | 150° |
| 2026-05-08 14:05 | 45.68481 | 4.85120 | 4663 ft | 197 kts | 150° |
| 2026-05-08 14:06 | 45.67325 | 4.86109 | 4534 ft | 187 kts | 149° |
| 2026-05-08 14:06 | 45.66256 | 4.87072 | 4418 ft | 177 kts | 149° |
| 2026-05-08 14:06 | 45.65230 | 4.87952 | 4289 ft | 165 kts | 150° |
| 2026-05-08 14:06 | 45.64306 | 4.88886 | 4105 ft | 156 kts | 137° |
| 2026-05-08 14:07 | 45.63766 | 4.90213 | 3878 ft | 157 kts | 104° |
| 2026-05-08 14:07 | 45.63911 | 4.91782 | 3751 ft | 167 kts | 73° |
| 2026-05-08 14:07 | 45.64334 | 4.93434 | 3732 ft | 175 kts | 72° |
| 2026-05-08 14:07 | 45.64772 | 4.95036 | 3604 ft | 171 kts | 71° |
| 2026-05-08 14:08 | 45.65002 | 4.96701 | 3516 ft | 168 kts | 87° |
| 2026-05-08 14:08 | 45.65108 | 4.98382 | 3460 ft | 167 kts | 87° |
| 2026-05-08 14:08 | 45.65231 | 5.00054 | 3374 ft | 169 kts | 86° |
| 2026-05-08 14:08 | 45.65330 | 5.01741 | 3251 ft | 169 kts | 89° |
| 2026-05-08 14:09 | 45.65392 | 5.03350 | 3069 ft | 154 kts | 89° |
| 2026-05-08 14:09 | 45.65467 | 5.04883 | 3013 ft | 156 kts | 87° |
| 2026-05-08 14:09 | 45.65603 | 5.06423 | 2855 ft | 153 kts | 83° |
| 2026-05-08 14:09 | 45.65844 | 5.07873 | 2589 ft | 149 kts | 71° |
| 2026-05-08 14:10 | 45.66368 | 5.09122 | 2246 ft | 143 kts | 51° |
| 2026-05-08 14:10 | 45.67099 | 5.09979 | 2008 ft | 130 kts | 9° |
| 2026-05-08 14:10 | 45.68018 | 5.09874 | 1608 ft | 132 kts | 350° |
| 2026-05-08 14:10 | 45.68930 | 5.09726 | 1209 ft | 131 kts | 355° |
| 2026-05-08 14:11 | 45.69808 | 5.09631 | 1118 ft | 123 kts | 356° |
| 2026-05-08 14:11 | 45.70642 | 5.09528 | 959 ft | 116 kts | 355° |
| 2026-05-08 14:11 | 45.71426 | 5.09436 | 829 ft | 105 kts | 355° |
| 2026-05-08 14:11 | 45.72075 | 5.09350 | 813 ft | 73 kts | 353° |
| 2026-05-08 14:12 | 45.72436 | 5.09278 | 804 ft | 41 kts | 338° |
| 2026-05-08 14:12 | 45.72644 | 5.09114 | 797 ft | 24 kts | 324° |
| 2026-05-08 14:12 | 45.72800 | 5.09045 | 793 ft | 20 kts | 355° |
| 2026-05-08 14:12 | 45.72925 | 5.09028 | 790 ft | 14 kts | 353° |
| 2026-05-08 14:13 | 45.72962 | 5.08922 | 787 ft | 13 kts | 264° |
| 2026-05-08 14:13 | 45.72955 | 5.08773 | 786 ft | 15 kts | 264° |
| 2026-05-08 14:13 | 45.72949 | 5.08663 | 786 ft | 5 kts | 266° |
| 2026-05-08 14:13 | 45.72943 | 5.08567 | 784 ft | 13 kts | 264° |
| 2026-05-08 14:14 | 45.72935 | 5.08451 | 782 ft | 9 kts | 264° |
| 2026-05-08 14:14 | 45.72928 | 5.08344 | 780 ft | 8 kts | 262° |
| 2026-05-08 14:14 | 45.72921 | 5.08266 | 779 ft | 2 kts | 268° |
| 2026-05-08 14:14 | 45.72934 | 5.08216 | 777 ft | 6 kts | 323° |
| 2026-05-08 14:15 | 45.72982 | 5.08196 | 776 ft | 6 kts | 341° |
| 2026-05-08 14:15 | 45.72999 | 5.08221 | 776 ft | 3 kts | 137° |
| 2026-05-08 14:15 | 45.72982 | 5.08225 | 777 ft | 2 kts | 175° |